sensor_id;sensor_type;location;lat;lon;timestamp;pressure;altitude;pressure_sealevel;temperature;humidity
69221;BME280;56331;51.992;20.910;2023-05-08T07:09:45;101702.19;;;20.70;36.00
69221;BME280;56331;51.992;20.910;2023-05-08T07:12:12;101703.57;;;20.70;36.63
69221;BME280;56331;51.992;20.910;2023-05-08T07:14:38;101703.17;;;20.77;36.61
69221;BME280;56331;51.992;20.910;2023-05-08T07:17:04;101705.05;;;20.82;36.68
69221;BME280;56331;51.992;20.910;2023-05-08T07:19:35;101707.78;;;20.84;36.75
69221;BME280;56331;51.992;20.910;2023-05-08T07:22:01;101706.64;;;20.85;36.46
69221;BME280;56331;51.992;20.910;2023-05-08T07:24:28;101710.22;;;20.88;35.08
69221;BME280;56331;51.992;20.910;2023-05-08T07:26:55;101707.95;;;20.90;34.79
69221;BME280;56331;51.992;20.910;2023-05-08T07:29:21;101716.54;;;20.91;34.83
69221;BME280;56331;51.992;20.910;2023-05-08T07:31:47;101718.95;;;20.95;34.74
69221;BME280;56331;51.992;20.910;2023-05-08T07:34:14;101714.46;;;21.00;35.44
69221;BME280;56331;51.992;20.910;2023-05-08T07:36:40;101707.53;;;21.00;36.10
69221;BME280;56331;51.992;20.910;2023-05-08T07:39:07;101700.57;;;21.02;35.75
69221;BME280;56331;51.992;20.910;2023-05-08T07:41:33;101710.63;;;21.14;35.87
69221;BME280;56331;51.992;20.910;2023-05-08T07:44:01;101712.22;;;21.18;35.86
69221;BME280;56331;51.992;20.910;2023-05-08T07:46:27;101712.38;;;21.24;36.08
69221;BME280;56331;51.992;20.910;2023-05-08T07:48:54;101710.95;;;21.27;36.07
69221;BME280;56331;51.992;20.910;2023-05-08T07:51:20;101712.77;;;21.34;36.14
69221;BME280;56331;51.992;20.910;2023-05-08T07:53:46;101707.73;;;21.38;36.55
69221;BME280;56331;51.992;20.910;2023-05-08T07:56:13;101709.32;;;21.42;36.41
69221;BME280;56331;51.992;20.910;2023-05-08T07:58:40;101709.80;;;21.47;36.46
69221;BME280;56331;51.992;20.910;2023-05-08T08:01:07;101710.77;;;21.53;36.51
69221;BME280;56331;51.992;20.910;2023-05-08T08:03:34;101705.50;;;21.54;36.46
69221;BME280;56331;51.992;20.910;2023-05-08T08:06:00;101710.23;;;21.54;36.37
69221;BME280;56331;51.992;20.910;2023-05-08T08:08:26;101712.39;;;21.57;36.24
69221;BME280;56331;51.992;20.910;2023-05-08T08:10:53;101716.22;;;21.58;36.17
69221;BME280;56331;51.992;20.910;2023-05-08T08:13:19;101708.70;;;21.61;36.00
69221;BME280;56331;51.992;20.910;2023-05-08T08:15:45;101720.70;;;21.57;36.01
69221;BME280;56331;51.992;20.910;2023-05-08T08:18:13;101717.66;;;21.56;35.97
69221;BME280;56331;51.992;20.910;2023-05-08T08:20:39;101715.41;;;21.58;35.87
69221;BME280;56331;51.992;20.910;2023-05-08T08:23:05;101714.06;;;21.55;35.85
69221;BME280;56331;51.992;20.910;2023-05-08T08:25:32;101707.75;;;21.52;35.86
69221;BME280;56331;51.992;20.910;2023-05-08T08:27:58;101699.23;;;21.49;36.20
69221;BME280;56331;51.992;20.910;2023-05-08T08:30:24;101700.09;;;21.47;36.51
69221;BME280;56331;51.992;20.910;2023-05-08T08:32:51;101700.72;;;21.44;36.48
69221;BME280;56331;51.992;20.910;2023-05-08T08:35:17;101697.66;;;21.43;36.82
69221;BME280;56331;51.992;20.910;2023-05-08T08:37:44;101697.13;;;21.43;36.83
69221;BME280;56331;51.992;20.910;2023-05-08T08:40:10;101694.84;;;21.45;37.00
69221;BME280;56331;51.992;20.910;2023-05-08T08:42:37;101696.80;;;21.45;37.14
69221;BME280;56331;51.992;20.910;2023-05-08T08:45:04;101699.23;;;21.49;37.15
69221;BME280;56331;51.992;20.910;2023-05-08T08:47:34;101686.76;;;21.49;37.21
69221;BME280;56331;51.992;20.910;2023-05-08T08:50:03;101689.20;;;21.50;37.38
69221;BME280;56331;51.992;20.910;2023-05-08T08:52:50;101681.61;;;21.56;37.47
69221;BME280;56331;51.992;20.910;2023-05-08T08:55:17;101688.20;;;21.60;37.42
69221;BME280;56331;51.992;20.910;2023-05-08T08:57:58;101683.80;;;21.59;37.29
69221;BME280;56331;51.992;20.910;2023-05-08T09:00:21;101691.79;;;21.60;37.27
69221;BME280;56331;51.992;20.910;2023-05-08T09:02:50;101690.72;;;21.59;37.43
69221;BME280;56331;51.992;20.910;2023-05-08T09:05:17;101687.63;;;21.60;37.41
69221;BME280;56331;51.992;20.910;2023-05-08T09:07:44;101687.28;;;21.65;37.01
69221;BME280;56331;51.992;20.910;2023-05-08T09:10:11;101688.10;;;21.65;36.96
69221;BME280;56331;51.992;20.910;2023-05-08T09:12:40;101688.34;;;21.66;36.76
69221;BME280;56331;51.992;20.910;2023-05-08T09:15:06;101683.12;;;21.65;36.74
69221;BME280;56331;51.992;20.910;2023-05-08T09:17:33;101688.34;;;21.66;36.47
69221;BME280;56331;51.992;20.910;2023-05-08T09:20:00;101685.85;;;21.67;36.37
69221;BME280;56331;51.992;20.910;2023-05-08T09:22:28;101687.19;;;21.70;36.15
69221;BME280;56331;51.992;20.910;2023-05-08T09:24:59;101684.98;;;21.69;36.12
69221;BME280;56331;51.992;20.910;2023-05-08T09:27:27;101681.31;;;21.71;35.95
69221;BME280;56331;51.992;20.910;2023-05-08T09:30:04;101673.56;;;21.71;35.98
69221;BME280;56331;51.992;20.910;2023-05-08T09:32:33;101674.37;;;21.71;35.84
69221;BME280;56331;51.992;20.910;2023-05-08T09:35:00;101679.44;;;21.69;35.71
69221;BME280;56331;51.992;20.910;2023-05-08T09:37:27;101679.21;;;21.66;35.60
69221;BME280;56331;51.992;20.910;2023-05-08T09:39:54;101679.02;;;21.62;35.69
69221;BME280;56331;51.992;20.910;2023-05-08T09:42:23;101670.98;;;21.60;35.69
69221;BME280;56331;51.992;20.910;2023-05-08T09:44:52;101671.22;;;21.64;35.72
69221;BME280;56331;51.992;20.910;2023-05-08T09:47:20;101667.35;;;21.62;35.77
69221;BME280;56331;51.992;20.910;2023-05-08T09:49:59;101676.77;;;21.64;35.53
69221;BME280;56331;51.992;20.910;2023-05-08T09:52:27;101675.05;;;21.66;35.44
69221;BME280;56331;51.992;20.910;2023-05-08T09:57:30;101670.64;;;21.65;35.51
69221;BME280;56331;51.992;20.910;2023-05-08T10:00:11;101666.44;;;21.67;35.49
69221;BME280;56331;51.992;20.910;2023-05-08T10:02:41;101661.66;;;21.70;35.10
69221;BME280;56331;51.992;20.910;2023-05-08T10:05:27;101659.75;;;21.68;35.19
69221;BME280;56331;51.992;20.910;2023-05-08T10:07:56;101649.75;;;21.70;35.35
69221;BME280;56331;51.992;20.910;2023-05-08T10:10:24;101647.22;;;21.71;35.60
69221;BME280;56331;51.992;20.910;2023-05-08T10:12:54;101643.38;;;21.69;35.74
69221;BME280;56331;51.992;20.910;2023-05-08T10:15:23;101641.15;;;21.69;36.01
69221;BME280;56331;51.992;20.910;2023-05-08T10:18:04;101639.47;;;21.70;36.01
69221;BME280;56331;51.992;20.910;2023-05-08T10:20:32;101639.12;;;21.74;36.58
69221;BME280;56331;51.992;20.910;2023-05-08T10:23:00;101635.20;;;21.75;36.69
69221;BME280;56331;51.992;20.910;2023-05-08T10:25:32;101641.52;;;21.78;36.52
69221;BME280;56331;51.992;20.910;2023-05-08T10:28:54;101632.95;;;21.77;36.65
69221;BME280;56331;51.992;20.910;2023-05-08T10:30:42;101639.31;;;21.78;36.83
69221;BME280;56331;51.992;20.910;2023-05-08T10:33:09;101633.19;;;21.78;36.93
69221;BME280;56331;51.992;20.910;2023-05-08T10:35:36;101625.69;;;21.79;37.43
69221;BME280;56331;51.992;20.910;2023-05-08T10:38:03;101633.58;;;21.74;36.87
69221;BME280;56331;51.992;20.910;2023-05-08T10:40:29;101635.02;;;21.72;36.80
69221;BME280;56331;51.992;20.910;2023-05-08T10:42:58;101632.29;;;21.69;36.70
69221;BME280;56331;51.992;20.910;2023-05-08T10:45:26;101627.04;;;21.68;36.62
69221;BME280;56331;51.992;20.910;2023-05-08T10:48:07;101630.00;;;21.71;36.53
69221;BME280;56331;51.992;20.910;2023-05-08T10:51:05;101641.38;;;21.72;36.72
69221;BME280;56331;51.992;20.910;2023-05-08T10:53:38;101639.12;;;21.74;37.04
69221;BME280;56331;51.992;20.910;2023-05-08T10:56:06;101633.00;;;21.75;36.83
69221;BME280;56331;51.992;20.910;2023-05-08T10:58:38;101641.00;;;21.76;37.08
69221;BME280;56331;51.992;20.910;2023-05-08T11:01:22;101639.36;;;21.75;37.05
69221;BME280;56331;51.992;20.910;2023-05-08T11:03:49;101636.16;;;21.82;37.29
69221;BME280;56331;51.992;20.910;2023-05-08T11:06:16;101623.63;;;21.84;36.68
69221;BME280;56331;51.992;20.910;2023-05-08T11:13:57;101621.88;;;21.89;36.81
69221;BME280;56331;51.992;20.910;2023-05-08T11:19:24;101618.53;;;21.89;35.99
69221;BME280;56331;51.992;20.910;2023-05-08T11:25:12;101615.98;;;21.93;35.66
69221;BME280;56331;51.992;20.910;2023-05-08T11:27:34;101614.08;;;21.91;35.55
69221;BME280;56331;51.992;20.910;2023-05-08T11:35:58;101607.95;;;21.91;35.22
69221;BME280;56331;51.992;20.910;2023-05-08T11:38:34;101603.22;;;21.92;34.96
69221;BME280;56331;51.992;20.910;2023-05-08T11:41:09;101609.70;;;21.87;34.91
69221;BME280;56331;51.992;20.910;2023-05-08T11:46:15;101594.60;;;21.79;34.42
69221;BME280;56331;51.992;20.910;2023-05-08T11:48:41;101594.36;;;21.78;34.16
69221;BME280;56331;51.992;20.910;2023-05-08T11:51:10;101595.64;;;21.83;34.03
69221;BME280;56331;51.992;20.910;2023-05-08T11:53:36;101592.56;;;21.85;34.10
69221;BME280;56331;51.992;20.910;2023-05-08T11:56:03;101590.84;;;21.87;33.99
69221;BME280;56331;51.992;20.910;2023-05-08T11:58:30;101591.72;;;21.84;33.78
69221;BME280;56331;51.992;20.910;2023-05-08T12:00:56;101594.83;;;21.83;33.63
69221;BME280;56331;51.992;20.910;2023-05-08T12:03:24;101596.16;;;21.85;33.45
69221;BME280;56331;51.992;20.910;2023-05-08T12:05:54;101588.12;;;21.84;33.54
69221;BME280;56331;51.992;20.910;2023-05-08T12:08:20;101588.41;;;21.85;33.76
69221;BME280;56331;51.992;20.910;2023-05-08T12:10:50;101592.19;;;21.89;34.27
69221;BME280;56331;51.992;20.910;2023-05-08T12:13:20;101585.25;;;21.89;34.34
69221;BME280;56331;51.992;20.910;2023-05-08T12:15:48;101577.44;;;21.91;35.05
69221;BME280;56331;51.992;20.910;2023-05-08T12:18:16;101580.45;;;21.92;35.29
69221;BME280;56331;51.992;20.910;2023-05-08T12:20:42;101575.48;;;21.92;35.25
69221;BME280;56331;51.992;20.910;2023-05-08T12:23:09;101571.89;;;21.91;35.39
69221;BME280;56331;51.992;20.910;2023-05-08T12:25:38;101574.85;;;21.95;35.45
69221;BME280;56331;51.992;20.910;2023-05-08T12:28:06;101572.92;;;21.95;35.46
69221;BME280;56331;51.992;20.910;2023-05-08T12:30:33;101572.65;;;21.94;35.65
69221;BME280;56331;51.992;20.910;2023-05-08T12:33:00;101572.08;;;21.95;35.65
69221;BME280;56331;51.992;20.910;2023-05-08T12:35:27;101565.47;;;21.93;35.78
69221;BME280;56331;51.992;20.910;2023-05-08T12:37:54;101569.36;;;21.92;35.96
69221;BME280;56331;51.992;20.910;2023-05-08T12:40:33;101572.70;;;21.92;36.01
69221;BME280;56331;51.992;20.910;2023-05-08T12:42:55;101577.38;;;21.94;36.07
69221;BME280;56331;51.992;20.910;2023-05-08T12:45:26;101574.03;;;21.94;36.13
69221;BME280;56331;51.992;20.910;2023-05-08T12:47:58;101568.48;;;21.94;36.17
69221;BME280;56331;51.992;20.910;2023-05-08T12:50:25;101575.18;;;21.93;36.26
69221;BME280;56331;51.992;20.910;2023-05-08T12:52:52;101569.88;;;21.94;36.32
69221;BME280;56331;51.992;20.910;2023-05-08T12:55:30;101563.75;;;21.95;36.42
69221;BME280;56331;51.992;20.910;2023-05-08T13:00:38;101553.45;;;21.98;36.70
69221;BME280;56331;51.992;20.910;2023-05-08T13:03:06;101551.72;;;21.99;37.01
69221;BME280;56331;51.992;20.910;2023-05-08T13:05:40;101544.16;;;22.02;37.09
69221;BME280;56331;51.992;20.910;2023-05-08T13:08:07;101541.14;;;22.01;36.47
69221;BME280;56331;51.992;20.910;2023-05-08T13:10:53;101541.71;;;22.01;35.98
69221;BME280;56331;51.992;20.910;2023-05-08T13:13:22;101543.52;;;21.94;35.72
69221;BME280;56331;51.992;20.910;2023-05-08T13:15:50;101546.23;;;21.97;35.25
69221;BME280;56331;51.992;20.910;2023-05-08T13:18:17;101542.34;;;21.98;35.12
69221;BME280;56331;51.992;20.910;2023-05-08T13:20:44;101542.28;;;22.00;34.83
69221;BME280;56331;51.992;20.910;2023-05-08T13:23:11;101540.84;;;22.03;34.70
69221;BME280;56331;51.992;20.910;2023-05-08T13:25:39;101544.73;;;22.02;34.77
69221;BME280;56331;51.992;20.910;2023-05-08T13:28:07;101546.45;;;22.00;34.57
69221;BME280;56331;51.992;20.910;2023-05-08T13:30:35;101546.39;;;22.03;34.47
69221;BME280;56331;51.992;20.910;2023-05-08T13:33:02;101545.00;;;22.03;34.40
69221;BME280;56331;51.992;20.910;2023-05-08T13:35:29;101543.86;;;22.04;34.45
69221;BME280;56331;51.992;20.910;2023-05-08T13:37:56;101535.53;;;22.04;34.38
69221;BME280;56331;51.992;20.910;2023-05-08T13:40:24;101532.76;;;22.04;34.27
69221;BME280;56331;51.992;20.910;2023-05-08T13:42:51;101527.45;;;22.05;34.10
69221;BME280;56331;51.992;20.910;2023-05-08T13:45:18;101521.36;;;22.05;34.16
69221;BME280;56331;51.992;20.910;2023-05-08T13:47:45;101517.73;;;22.05;34.02
69221;BME280;56331;51.992;20.910;2023-05-08T13:50:14;101519.39;;;22.06;33.96
69221;BME280;56331;51.992;20.910;2023-05-08T13:52:41;101515.80;;;22.05;33.91
69221;BME280;56331;51.992;20.910;2023-05-08T13:55:09;101520.15;;;22.09;33.80
69221;BME280;56331;51.992;20.910;2023-05-08T13:57:36;101517.11;;;22.08;33.79
69221;BME280;56331;51.992;20.910;2023-05-08T14:00:03;101520.72;;;22.09;33.62
69221;BME280;56331;51.992;20.910;2023-05-08T14:02:30;101516.56;;;22.09;33.27
69221;BME280;56331;51.992;20.910;2023-05-08T14:04:56;101516.86;;;22.07;33.14
69221;BME280;56331;51.992;20.910;2023-05-08T14:07:23;101510.44;;;22.09;33.22
69221;BME280;56331;51.992;20.910;2023-05-08T14:09:51;101511.77;;;22.12;33.19
69221;BME280;56331;51.992;20.910;2023-05-08T14:12:19;101508.66;;;22.13;33.29
69221;BME280;56331;51.992;20.910;2023-05-08T14:14:45;101510.38;;;22.12;33.62
69221;BME280;56331;51.992;20.910;2023-05-08T14:17:14;101512.58;;;22.12;33.78
69221;BME280;56331;51.992;20.910;2023-05-08T14:19:40;101504.77;;;22.14;33.98
69221;BME280;56331;51.992;20.910;2023-05-08T14:22:07;101506.15;;;22.14;34.21
69221;BME280;56331;51.992;20.910;2023-05-08T14:24:33;101504.43;;;22.16;34.39
69221;BME280;56331;51.992;20.910;2023-05-08T14:27:01;101497.83;;;22.14;34.64
69221;BME280;56331;51.992;20.910;2023-05-08T14:29:29;101497.83;;;22.14;34.77
69221;BME280;56331;51.992;20.910;2023-05-08T14:31:56;101501.41;;;22.15;34.79
69221;BME280;56331;51.992;20.910;2023-05-08T14:34:22;101503.38;;;22.14;34.97
69221;BME280;56331;51.992;20.910;2023-05-08T14:36:49;101492.78;;;22.16;35.09
69221;BME280;56331;51.992;20.910;2023-05-08T14:39:15;101500.78;;;22.18;35.33
69221;BME280;56331;51.992;20.910;2023-05-08T14:41:41;101505.75;;;22.18;35.54
69221;BME280;56331;51.992;20.910;2023-05-08T14:44:08;101502.98;;;22.18;35.88
69221;BME280;56331;51.992;20.910;2023-05-08T14:46:34;101503.55;;;22.18;35.79
69221;BME280;56331;51.992;20.910;2023-05-08T14:49:01;101501.59;;;22.18;35.81
69221;BME280;56331;51.992;20.910;2023-05-08T14:51:28;101506.33;;;22.18;36.01
69221;BME280;56331;51.992;20.910;2023-05-08T14:53:54;101501.32;;;22.20;36.02
69221;BME280;56331;51.992;20.910;2023-05-08T14:56:21;101505.75;;;22.18;36.03
69221;BME280;56331;51.992;20.910;2023-05-08T14:58:51;101507.72;;;22.18;36.08
69221;BME280;56331;51.992;20.910;2023-05-08T15:01:20;101502.47;;;22.19;36.14
69221;BME280;56331;51.992;20.910;2023-05-08T15:03:47;101504.37;;;22.18;36.22
69221;BME280;56331;51.992;20.910;2023-05-08T15:06:16;101508.53;;;22.18;35.65
69221;BME280;56331;51.992;20.910;2023-05-08T15:08:42;101505.82;;;22.16;35.56
69221;BME280;56331;51.992;20.910;2023-05-08T15:11:08;101504.49;;;22.13;35.37
69221;BME280;56331;51.992;20.910;2023-05-08T15:13:34;101507.54;;;22.14;34.76
69221;BME280;56331;51.992;20.910;2023-05-08T15:16:01;101506.15;;;22.14;34.45
69221;BME280;56331;51.992;20.910;2023-05-08T15:18:27;101503.38;;;22.14;34.05
69221;BME280;56331;51.992;20.910;2023-05-08T15:20:54;101499.21;;;22.14;33.73
69221;BME280;56331;51.992;20.910;2023-05-08T15:23:21;101499.45;;;22.15;33.38
69221;BME280;56331;51.992;20.910;2023-05-08T15:25:47;101494.98;;;22.17;33.06
69221;BME280;56331;51.992;20.910;2023-05-08T15:28:14;101498.46;;;22.11;32.88
69221;BME280;56331;51.992;20.910;2023-05-08T15:30:46;101495.41;;;22.10;32.75
69221;BME280;56331;51.992;20.910;2023-05-08T15:33:12;101500.45;;;22.08;32.71
69221;BME280;56331;51.992;20.910;2023-05-08T15:35:40;101501.59;;;22.07;32.61
69221;BME280;56331;51.992;20.910;2023-05-08T15:38:07;101498.07;;;22.04;32.54
69221;BME280;56331;51.992;20.910;2023-05-08T15:40:33;101505.31;;;22.02;32.48
69221;BME280;56331;51.992;20.910;2023-05-08T15:43:00;101497.05;;;22.00;32.40
69221;BME280;56331;51.992;20.910;2023-05-08T15:45:27;101497.95;;;21.98;32.32
